Time;durP1;ratioP1;P1;durP2;ratioP2;P2;SDS_P1;SDS_P2;PMS_P1;PMS_P2;Temp;Humidity;BMP_temperature;BMP_pressure;BME280_temperature;BME280_humidity;BME280_pressure;Samples;Min_cycle;Max_cycle;Signal;HPM_P1;HPM_P2
2022/10/07 08:15:40;;;;;;;3.72;0.70;;;18.60;99.90;;;;;;6258633;22;21808;-68
2022/10/07 08:18:09;;;;;;;7.07;1.85;;;18.40;99.90;;;;;;6184806;23;20184;-68
2022/10/07 08:20:36;;;;;;;2.53;0.60;;;18.50;99.90;;;;;;6186514;23;20177;-68
2022/10/07 08:23:03;;;;;;;4.70;0.80;;;18.60;99.90;;;;;;6185844;23;20739;-68
2022/10/07 08:25:30;;;;;;;2.47;0.60;;;18.70;99.90;;;;;;6186254;23;20184;-68
2022/10/07 08:27:57;;;;;;;3.60;0.80;;;18.60;99.90;;;;;;6185793;23;20177;-69
2022/10/07 08:30:24;;;;;;;2.97;0.80;;;18.40;99.90;;;;;;6186386;23;20177;-68
2022/10/07 08:32:51;;;;;;;5.68;0.90;;;18.10;99.90;;;;;;6186173;23;20224;-69
2022/10/07 08:35:19;;;;;;;1.73;0.57;;;18.20;99.90;;;;;;6179795;23;20565;-69
2022/10/07 08:37:46;;;;;;;2.78;0.73;;;18.40;99.90;;;;;;6184634;23;20293;-72
2022/10/07 08:40:16;;;;;;;2.88;0.82;;;18.50;99.90;;;;;;6184197;23;20187;-69
2022/10/07 08:42:45;;;;;;;3.53;0.80;;;18.60;99.90;;;;;;6183750;23;20267;-76
2022/10/07 08:45:19;;;;;;;4.03;0.77;;;18.70;99.90;;;;;;6184109;23;20177;-70
2022/10/07 08:47:48;;;;;;;3.88;0.73;;;18.80;99.90;;;;;;6184022;23;20227;-71
2022/10/07 08:50:17;;;;;;;4.35;0.65;;;18.60;99.90;;;;;;6185615;23;20201;-69
2022/10/07 08:52:52;;;;;;;2.83;0.90;;;18.70;99.90;;;;;;6185361;23;20630;-70
2022/10/07 08:55:26;;;;;;;1.40;0.55;;;18.60;99.90;;;;;;6185677;23;20208;-71
2022/10/07 08:58:11;;;;;;;3.03;0.85;;;18.60;99.90;;;;;;6185211;23;20720;-71
2022/10/07 09:00:43;;;;;;;2.78;0.80;;;18.10;99.90;;;;;;6185588;23;20199;-69
2022/10/07 09:03:22;;;;;;;3.80;0.90;;;17.70;99.90;;;;;;6185022;23;20538;-70
2022/10/07 09:05:50;;;;;;;3.50;0.80;;;17.40;99.90;;;;;;6185832;23;20227;-69
2022/10/07 09:08:26;;;;;;;5.10;0.70;;;17.40;99.90;;;;;;6185757;23;20184;-70
2022/10/07 09:10:55;;;;;;;4.53;0.83;;;17.20;99.90;;;;;;6186213;23;20181;-70
2022/10/07 09:13:27;;;;;;;6.93;1.07;;;17.10;99.90;;;;;;6186047;23;20197;-71
2022/10/07 09:15:59;;;;;;;4.13;0.80;;;17.10;99.90;;;;;;6185953;23;20191;-70
2022/10/07 09:18:30;;;;;;;4.20;0.67;;;17.00;99.90;;;;;;6186206;23;20185;-71
2022/10/07 09:20:57;;;;;;;4.73;0.77;;;16.90;99.90;;;;;;6186226;23;20182;-71
2022/10/07 09:23:29;;;;;;;4.37;1.00;;;16.80;99.90;;;;;;6185938;23;20658;-70
2022/10/07 09:25:56;;;;;;;7.17;0.77;;;16.80;99.90;;;;;;6185930;23;20199;-70
2022/10/07 09:28:26;;;;;;;1.97;0.70;;;16.80;99.90;;;;;;6185824;23;20535;-70
2022/10/07 09:30:52;;;;;;;10.10;1.17;;;16.80;99.90;;;;;;6185516;23;20185;-69
2022/10/07 09:33:22;;;;;;;2.63;0.97;;;16.70;99.90;;;;;;6185592;23;20276;-69
2022/10/07 09:35:53;;;;;;;4.37;0.77;;;16.70;99.90;;;;;;6185733;23;20177;-71
2022/10/07 09:38:33;;;;;;;5.47;0.87;;;16.80;99.90;;;;;;6185792;23;20183;-70
2022/10/07 09:41:19;;;;;;;5.00;0.93;;;16.80;99.90;;;;;;6185428;23;20184;-70
2022/10/07 09:44:02;;;;;;;0.93;0.40;;;16.80;99.90;;;;;;6185004;23;20262;-70
2022/10/07 09:46:52;;;;;;;7.93;0.83;;;16.80;99.90;;;;;;6184829;23;20181;-71
2022/10/07 09:49:44;;;;;;;1.53;0.50;;;16.90;99.90;;;;;;6179036;23;20185;-70
2022/10/07 09:52:22;;;;;;;4.10;0.73;;;17.00;99.90;;;;;;6163024;23;20709;-71
2022/10/07 09:54:52;;;;;;;4.03;0.60;;;17.20;99.90;;;;;;6185777;23;20208;-72
2022/10/07 09:57:31;;;;;;;2.00;0.70;;;17.30;99.90;;;;;;6185291;23;20181;-72
2022/10/07 10:00:25;;;;;;;4.90;0.93;;;17.10;99.90;;;;;;6185741;23;20176;-70
2022/10/07 10:02:55;;;;;;;3.70;0.83;;;17.00;99.90;;;;;;6185285;23;20219;-69
2022/10/07 10:05:25;;;;;;;2.67;0.50;;;17.00;99.90;;;;;;6184836;23;20689;-70
2022/10/07 10:08:02;;;;;;;4.20;0.67;;;17.20;99.90;;;;;;6185496;23;20535;-70
2022/10/07 10:10:32;;;;;;;2.30;0.50;;;17.50;99.90;;;;;;6185767;23;20181;-70
2022/10/07 10:13:01;;;;;;;3.93;0.60;;;17.60;99.90;;;;;;6185260;23;20201;-69
2022/10/07 10:15:39;;;;;;;5.23;0.60;;;17.70;99.90;;;;;;6185303;23;20185;-69
2022/10/07 10:18:28;;;;;;;5.67;0.90;;;17.80;99.90;;;;;;6185370;23;20204;-69
2022/10/07 10:20:55;;;;;;;6.10;0.80;;;17.80;99.90;;;;;;6178930;23;20185;-70
2022/10/07 10:23:27;;;;;;;3.90;1.17;;;17.70;99.90;;;;;;6184726;23;20219;-70
2022/10/07 10:28:58;;;;;;;1.90;0.60;;;17.80;99.90;;;;;;6185161;23;20697;-70
2022/10/07 10:31:34;;;;;;;2.23;0.60;;;17.70;99.90;;;;;;6185399;23;20176;-69
2022/10/07 10:34:08;;;;;;;1.70;1.00;;;17.70;99.90;;;;;;6184936;23;20232;-69
2022/10/07 10:36:42;;;;;;;3.33;0.57;;;17.70;99.90;;;;;;6185512;23;20227;-70
2022/10/07 10:39:20;;;;;;;3.77;0.70;;;17.60;99.90;;;;;;6185316;23;20213;-69
2022/10/07 10:41:54;;;;;;;4.13;0.70;;;17.70;99.90;;;;;;6185541;23;20224;-70
2022/10/07 10:44:43;;;;;;;3.33;1.10;;;17.80;99.90;;;;;;6184222;23;20540;-72
2022/10/07 10:47:22;;;;;;;3.90;1.30;;;17.70;99.90;;;;;;6184974;23;20191;-71
2022/10/07 10:49:59;;;;;;;2.53;0.47;;;17.70;99.90;;;;;;6184772;23;20268;-71
2022/10/07 10:52:44;;;;;;;3.53;0.73;;;17.70;99.90;;;;;;6184547;23;20669;-71
2022/10/07 10:55:44;;;;;;;4.00;0.73;;;17.80;99.90;;;;;;6184961;23;20177;-70
2022/10/07 10:58:25;;;;;;;5.37;0.80;;;17.90;99.90;;;;;;6184851;23;20188;-70
2022/10/07 11:01:01;;;;;;;3.33;0.53;;;18.00;99.90;;;;;;6185612;23;20213;-71
2022/10/07 11:03:50;;;;;;;2.83;1.17;;;17.90;99.90;;;;;;6185162;23;20880;-72
2022/10/07 11:06:19;;;;;;;2.93;0.97;;;18.00;99.90;;;;;;6185209;23;20256;-69
2022/10/07 11:08:47;;;;;;;3.47;0.67;;;18.00;99.90;;;;;;6185031;23;20188;-71
2022/10/07 11:11:18;;;;;;;3.60;0.60;;;18.00;99.90;;;;;;6184516;23;20188;-71
2022/10/07 11:13:51;;;;;;;2.63;0.90;;;18.00;99.90;;;;;;6182992;23;20204;-68
2022/10/07 11:16:22;;;;;;;3.63;0.70;;;18.00;99.90;;;;;;6183827;23;20252;-69
2022/10/07 11:18:53;;;;;;;4.90;0.60;;;18.00;99.90;;;;;;6185653;23;20177;-70
2022/10/07 11:21:24;;;;;;;1.23;0.43;;;18.00;99.90;;;;;;6186158;23;20177;-69
2022/10/07 11:23:58;;;;;;;1.00;0.60;;;18.00;99.90;;;;;;6185773;23;20213;-69
2022/10/07 11:26:30;;;;;;;4.20;1.10;;;17.90;99.90;;;;;;6186660;23;20263;-69
2022/10/07 11:29:03;;;;;;;2.33;0.63;;;18.00;99.90;;;;;;6186305;23;20183;-68
2022/10/07 11:31:35;;;;;;;4.50;0.87;;;18.10;99.90;;;;;;6185631;23;20688;-70
2022/10/07 11:34:13;;;;;;;8.27;0.77;;;17.90;99.90;;;;;;6184707;23;20201;-69
2022/10/07 11:36:50;;;;;;;3.73;0.50;;;17.80;99.90;;;;;;6185947;23;20184;-70
2022/10/07 11:39:17;;;;;;;4.83;1.33;;;17.80;99.90;;;;;;6185841;23;20181;-68
2022/10/07 11:41:50;;;;;;;4.27;0.67;;;17.90;99.90;;;;;;6186641;23;20200;-70
2022/10/07 11:44:25;;;;;;;2.60;0.87;;;18.00;99.90;;;;;;6186187;23;20296;-69
2022/10/07 11:46:54;;;;;;;3.33;1.10;;;18.00;99.90;;;;;;6186602;23;20176;-68
2022/10/07 11:49:28;;;;;;;4.25;1.10;;;18.00;99.90;;;;;;6187101;23;20181;-68
2022/10/07 11:51:59;;;;;;;2.87;0.67;;;18.00;99.90;;;;;;6186946;23;20204;-69
2022/10/07 11:54:31;;;;;;;5.18;0.80;;;18.10;99.90;;;;;;6186986;23;20200;-69
2022/10/07 11:56:59;;;;;;;2.85;0.70;;;18.10;99.90;;;;;;6186008;23;20268;-69
2022/10/07 11:59:40;;;;;;;4.93;0.80;;;18.10;99.90;;;;;;6186694;23;20223;-69
2022/10/07 12:02:45;;;;;;;3.03;0.85;;;18.20;99.90;;;;;;6186605;23;20181;-69
2022/10/07 12:05:42;;;;;;;2.60;0.80;;;18.20;99.90;;;;;;6185229;23;20645;-68
2022/10/07 12:08:29;;;;;;;5.30;0.80;;;18.30;99.90;;;;;;6184886;23;20177;-68
2022/10/07 12:11:16;;;;;;;3.72;0.68;;;18.40;99.90;;;;;;6186369;23;20177;-67
2022/10/07 12:13:45;;;;;;;6.32;1.33;;;18.40;99.90;;;;;;6185711;23;20695;-68
2022/10/07 12:16:53;;;;;;;4.25;0.73;;;18.40;99.90;;;;;;6186068;23;20189;-70
2022/10/07 12:19:20;;;;;;;3.00;0.73;;;18.20;99.90;;;;;;6161335;23;20181;-69
2022/10/07 12:22:18;;;;;;;4.30;1.05;;;18.20;99.90;;;;;;6186471;23;20184;-68
2022/10/07 12:25:06;;;;;;;4.45;0.75;;;18.30;99.90;;;;;;6186488;23;20213;-68
2022/10/07 12:27:35;;;;;;;3.10;0.80;;;18.30;99.90;;;;;;6186158;23;20188;-70
2022/10/07 12:30:02;;;;;;;5.27;1.30;;;18.30;99.90;;;;;;6185628;23;20642;-69
2022/10/07 12:32:46;;;;;;;5.63;0.93;;;18.20;99.90;;;;;;6186082;23;20197;-70
2022/10/07 12:35:42;;;;;;;2.35;1.05;;;18.20;99.90;;;;;;6186561;23;20181;-68
2022/10/07 12:38:28;;;;;;;5.63;1.23;;;18.20;99.90;;;;;;6181829;23;20182;-69
2022/10/07 12:41:13;;;;;;;3.47;1.00;;;18.30;99.90;;;;;;6186186;23;20181;-70
2022/10/07 12:43:52;;;;;;;6.20;1.37;;;18.20;99.90;;;;;;6186214;23;20515;-70
2022/10/07 12:46:21;;;;;;;3.70;1.15;;;18.20;99.90;;;;;;6186104;23;20184;-71
2022/10/07 12:48:57;;;;;;;3.50;0.98;;;18.30;99.90;;;;;;6185732;23;20656;-70
2022/10/07 12:51:27;;;;;;;5.17;1.40;;;18.30;99.90;;;;;;6186055;23;20263;-70
2022/10/07 12:53:57;;;;;;;4.88;1.02;;;18.30;99.90;;;;;;6186012;23;20204;-69
2022/10/07 12:56:27;;;;;;;2.83;0.90;;;18.30;99.90;;;;;;6186360;23;20229;-70
2022/10/07 13:02:54;;;;;;;1.48;0.60;;;18.30;99.90;;;;;;6185746;23;20184;-70
2022/10/07 13:06:00;;;;;;;1.87;0.60;;;18.20;99.90;;;;;;6184078;23;20231;-68
2022/10/07 13:09:08;;;;;;;5.60;0.80;;;18.10;99.90;;;;;;6185879;23;20264;-69
2022/10/07 13:12:16;;;;;;;2.90;0.80;;;18.20;99.90;;;;;;6185546;23;20177;-69
2022/10/07 13:14:55;;;;;;;3.75;0.80;;;18.20;99.90;;;;;;6174323;23;20626;-67
2022/10/07 13:17:35;;;;;;;2.80;0.65;;;18.30;99.90;;;;;;6179884;23;20191;-68
2022/10/07 13:20:19;;;;;;;3.63;0.70;;;18.40;99.90;;;;;;6184240;23;20185;-69
2022/10/07 13:22:48;;;;;;;2.43;0.90;;;18.40;99.90;;;;;;6183491;23;20203;-68
2022/10/07 13:25:18;;;;;;;7.43;1.10;;;18.50;99.90;;;;;;6183072;23;20307;-72
2022/10/07 13:27:52;;;;;;;4.47;1.45;;;18.40;99.90;;;;;;6184222;23;20177;-71
2022/10/07 13:30:37;;;;;;;6.20;1.40;;;18.50;99.90;;;;;;6183568;23;20639;-70
2022/10/07 13:33:30;;;;;;;4.35;0.90;;;18.40;99.90;;;;;;6182446;23;20699;-68
2022/10/07 13:36:08;;;;;;;5.28;1.50;;;18.20;99.90;;;;;;6162488;23;20192;-66
2022/10/07 13:38:36;;;;;;;6.13;1.10;;;18.20;99.90;;;;;;6183867;23;20178;-68
2022/10/07 13:41:07;;;;;;;5.45;1.35;;;18.40;99.90;;;;;;6183055;23;20187;-69
2022/10/07 13:43:36;;;;;;;3.10;0.70;;;18.40;99.90;;;;;;6183461;23;20291;-68
2022/10/07 13:46:07;;;;;;;6.15;1.02;;;18.40;99.90;;;;;;6183066;23;20177;-69
